createdAt,value
2019-02-17T00:00:13.066Z,52.91
2019-02-17T00:02:46.768Z,53.86
2019-02-17T00:05:50.344Z,53.68
2019-02-17T00:06:50.233Z,54.30
2019-02-17T00:07:50.896Z,54.20
2019-02-17T00:08:50.213Z,54.02
2019-02-17T00:11:40.545Z,54.10
2019-02-17T00:12:40.390Z,53.27
2019-02-17T00:13:40.310Z,53.27
2019-02-17T00:14:40.325Z,54.10
2019-02-17T00:15:40.218Z,53.66
2019-02-17T00:16:40.342Z,53.56
2019-02-17T00:17:40.859Z,52.94
2019-02-17T00:18:40.092Z,53.14
2019-02-17T00:19:40.082Z,53.35
2019-02-17T00:20:40.072Z,53.04
2019-02-17T00:21:40.962Z,52.94
2019-02-17T00:22:41.674Z,53.76
2019-02-17T00:23:40.070Z,53.14
2019-02-17T00:24:40.456Z,52.86
2019-02-17T00:25:40.459Z,53.78
2019-02-17T00:28:07.853Z,53.91
2019-02-17T00:29:07.841Z,54.43
2019-02-17T00:30:07.846Z,54.43
2019-02-17T00:31:07.754Z,54.64
2019-02-17T00:32:07.698Z,54.53
2019-02-17T00:33:07.616Z,54.51
2019-02-17T00:34:07.739Z,54.10
2019-02-17T00:35:07.804Z,53.99
2019-02-17T00:36:07.535Z,53.27
2019-02-17T00:37:07.519Z,53.89
2019-02-17T00:38:07.904Z,53.27
2019-02-17T00:39:07.459Z,53.78
2019-02-17T00:40:07.437Z,53.89
2019-02-17T00:41:07.422Z,53.89
2019-02-17T00:42:08.395Z,53.97
2019-02-17T00:43:07.410Z,53.27
2019-02-17T00:44:07.388Z,53.78
2019-02-17T00:45:07.373Z,53.38
2019-02-17T00:46:07.392Z,54.20
2019-02-17T00:47:07.466Z,54.41
2019-02-17T00:52:23.346Z,55.15
2019-02-17T00:53:23.379Z,55.26
2019-02-17T00:54:23.302Z,54.43
2019-02-17T00:55:23.254Z,54.22
2019-02-17T00:56:23.302Z,54.66
2019-02-17T00:57:23.311Z,55.59
2019-02-17T00:58:23.124Z,55.72
2019-02-17T00:59:23.101Z,55.72
2019-02-17T01:00:23.223Z,55.72
2019-02-17T01:01:23.238Z,55.90
2019-02-17T01:02:22.965Z,55.18
2019-02-17T01:04:54.212Z,55.69
2019-02-17T01:07:46.847Z,55.66
2019-02-17T01:08:43.722Z,54.53
2019-02-17T01:09:43.545Z,55.26
2019-02-17T01:10:43.496Z,55.26
2019-02-17T01:11:43.590Z,54.41
2019-02-17T01:12:43.630Z,54.43
2019-02-17T01:13:43.392Z,54.43
2019-02-17T01:14:43.384Z,54.56
2019-02-17T01:15:43.344Z,54.97
2019-02-17T01:16:43.350Z,55.30
2019-02-17T01:17:43.310Z,56.16
2019-02-17T01:18:43.267Z,56.88
2019-02-17T01:19:43.317Z,56.67
2019-02-17T01:20:43.332Z,55.72
2019-02-17T01:21:44.277Z,56.34
2019-02-17T01:22:43.206Z,56.85
2019-02-17T01:23:43.190Z,56.13
2019-02-17T01:24:43.216Z,55.90
2019-02-17T01:25:43.988Z,55.59
2019-02-17T01:26:43.169Z,55.69
2019-02-17T01:27:43.141Z,56.00
2019-02-17T01:28:43.148Z,55.80
2019-02-17T01:29:43.155Z,55.69
2019-02-17T01:30:43.146Z,55.69
2019-02-17T01:31:43.095Z,56.00
2019-02-17T01:32:43.088Z,56.21
2019-02-17T01:33:43.075Z,55.80
2019-02-17T01:34:43.081Z,56.13
2019-02-17T01:35:43.056Z,56.10
2019-02-17T01:36:43.046Z,56.03
2019-02-17T01:37:43.033Z,56.10
2019-02-17T01:38:43.023Z,56.31
2019-02-17T01:39:43.025Z,56.21
2019-02-17T01:40:43.005Z,55.90
2019-02-17T01:41:42.991Z,55.69
2019-02-17T01:44:01.639Z,55.18
2019-02-17T01:45:01.771Z,55.20
2019-02-17T01:46:01.730Z,56.23
2019-02-17T01:47:01.297Z,56.03
2019-02-17T01:48:01.542Z,56.13
2019-02-17T01:49:01.715Z,56.13
2019-02-17T01:50:01.246Z,56.21
2019-02-17T01:51:01.258Z,55.51
2019-02-17T01:52:01.185Z,55.69
2019-02-17T01:53:01.183Z,55.69
2019-02-17T01:54:01.163Z,55.38
2019-02-17T01:55:01.208Z,55.69
2019-02-17T01:56:01.152Z,54.79
2019-02-17T01:57:21.629Z,55.30
2019-02-17T01:58:01.407Z,56.13
2019-02-17T01:59:01.282Z,55.59
2019-02-17T02:00:01.206Z,55.69
2019-02-17T02:01:01.455Z,55.69
2019-02-17T02:02:01.789Z,55.69
2019-02-17T02:03:01.693Z,54.97
2019-02-17T02:04:01.717Z,55.07
2019-02-17T02:05:01.389Z,55.62
2019-02-17T02:06:01.074Z,55.59
2019-02-17T02:07:01.364Z,55.69
2019-02-17T02:08:01.041Z,55.59
2019-02-17T02:09:08.294Z,55.62
2019-02-17T02:10:01.353Z,55.38
2019-02-17T02:11:01.219Z,54.86
2019-02-17T02:13:45.407Z,54.97
2019-02-17T02:14:44.760Z,55.05
2019-02-17T02:15:44.666Z,54.64
2019-02-17T02:16:44.610Z,54.56
2019-02-17T02:17:44.815Z,54.56
2019-02-17T02:18:44.789Z,54.97
2019-02-17T02:19:44.540Z,54.46
2019-02-17T02:20:44.553Z,55.05
2019-02-17T02:21:44.512Z,55.38
2019-02-17T02:22:44.498Z,54.74
2019-02-17T02:23:44.525Z,54.86
2019-02-17T02:24:44.476Z,54.56
2019-02-17T02:27:44.907Z,55.38
2019-02-17T02:28:44.146Z,54.35
2019-02-17T02:29:44.145Z,55.38
2019-02-17T02:30:44.180Z,55.59
2019-02-17T02:31:44.106Z,55.07
2019-02-17T02:32:43.956Z,54.66
2019-02-17T02:33:44.129Z,55.07
2019-02-17T02:34:44.046Z,54.97
2019-02-17T02:35:43.845Z,55.00
2019-02-17T02:36:43.861Z,55.62
2019-02-17T02:37:43.820Z,55.85
2019-02-17T02:38:43.837Z,55.93
2019-02-17T02:39:43.808Z,56.13
2019-02-17T02:40:44.992Z,55.93
2019-02-17T02:41:43.765Z,55.62
2019-02-17T02:42:44.912Z,55.82
2019-02-17T02:43:43.795Z,56.23
2019-02-17T02:44:43.769Z,55.72
2019-02-17T02:45:43.849Z,56.03
2019-02-17T02:46:43.767Z,56.13
2019-02-17T02:47:45.488Z,55.51
2019-02-17T02:48:43.781Z,55.85
2019-02-17T02:49:45.524Z,56.44
2019-02-17T02:50:43.712Z,56.23
2019-02-17T02:51:43.723Z,55.62
2019-02-17T02:54:22.579Z,55.69
2019-02-17T02:55:22.643Z,55.62
2019-02-17T02:56:22.469Z,55.72
2019-02-17T02:57:22.375Z,56.13
2019-02-17T02:58:22.533Z,55.00
2019-02-17T02:59:22.599Z,56.05
2019-02-17T03:00:22.347Z,56.18
2019-02-17T03:01:22.283Z,56.60
2019-02-17T03:02:22.280Z,56.60
2019-02-17T03:03:22.253Z,57.11
2019-02-17T03:04:22.245Z,57.01
2019-02-17T03:05:22.227Z,56.57
2019-02-17T03:06:22.230Z,56.98
2019-02-17T03:07:22.225Z,56.77
2019-02-17T03:08:22.199Z,56.37
2019-02-17T03:09:22.184Z,56.88
2019-02-17T03:10:31.082Z,56.81
2019-02-17T03:11:22.476Z,56.49
2019-02-17T03:12:22.438Z,57.24
2019-02-17T03:13:22.301Z,57.76
2019-02-17T03:14:22.172Z,57.86
2019-02-17T03:15:31.646Z,57.99
2019-02-17T03:16:22.405Z,57.97
2019-02-17T03:17:22.433Z,57.86
2019-02-17T03:18:22.391Z,58.20
2019-02-17T03:19:22.374Z,58.74
2019-02-17T03:20:22.298Z,58.51
2019-02-17T03:21:22.174Z,58.95
2019-02-17T03:22:22.077Z,58.95
2019-02-17T03:23:22.343Z,59.05
2019-02-17T03:24:35.001Z,58.92
2019-02-17T03:25:22.323Z,58.40
2019-02-17T03:26:22.277Z,58.95
2019-02-17T03:27:22.286Z,58.61
2019-02-17T03:28:22.120Z,58.61
2019-02-17T03:29:22.011Z,58.20
2019-02-17T03:30:22.280Z,58.20
2019-02-17T03:31:22.275Z,58.20
2019-02-17T03:32:21.984Z,58.09
2019-02-17T03:33:30.011Z,58.54
2019-02-17T03:34:22.188Z,58.87
2019-02-17T03:35:22.060Z,59.39
2019-02-17T03:36:22.154Z,59.19
2019-02-17T03:37:22.033Z,58.84
2019-02-17T03:38:21.911Z,59.26
2019-02-17T03:39:22.112Z,58.54
2019-02-17T03:40:21.842Z,58.84
2019-02-17T03:41:21.833Z,58.64
2019-02-17T03:42:21.807Z,58.72
2019-02-17T03:43:21.796Z,59.13
2019-02-17T03:44:21.801Z,58.92
2019-02-17T03:45:21.780Z,58.61
2019-02-17T03:46:21.781Z,58.61
2019-02-17T03:47:21.761Z,58.40
2019-02-17T03:48:21.744Z,58.95
2019-02-17T03:49:21.731Z,59.55
2019-02-17T03:50:21.716Z,58.61
2019-02-17T03:51:22.038Z,58.84
2019-02-17T03:52:21.723Z,59.16
2019-02-17T03:53:21.689Z,59.26
2019-02-17T03:54:21.670Z,58.95
2019-02-17T03:55:21.668Z,58.82
2019-02-17T03:56:21.667Z,59.26
2019-02-17T03:57:34.063Z,59.34
2019-02-17T03:58:21.970Z,59.03
2019-02-17T03:59:21.852Z,59.03
2019-02-17T04:00:21.718Z,58.40
2019-02-17T04:01:21.650Z,58.61
2019-02-17T04:02:21.813Z,58.92
2019-02-17T04:03:21.578Z,59.26
2019-02-17T04:04:28.781Z,59.50
2019-02-17T04:05:34.340Z,59.29
2019-02-17T04:06:21.822Z,59.80
2019-02-17T04:07:21.684Z,59.47
2019-02-17T04:08:33.545Z,58.84
2019-02-17T04:09:21.885Z,59.26
2019-02-17T04:10:21.830Z,59.13
2019-02-17T04:11:21.664Z,59.16
2019-02-17T04:12:30.359Z,58.92
2019-02-17T04:13:21.716Z,58.51
2019-02-17T04:14:21.680Z,58.82
2019-02-17T04:15:28.744Z,58.40
2019-02-17T04:16:21.694Z,58.72
2019-02-17T04:17:28.751Z,58.74
2019-02-17T04:18:21.615Z,59.16
2019-02-17T04:19:21.684Z,59.05
2019-02-17T04:20:21.661Z,59.57
2019-02-17T04:21:21.638Z,59.05
2019-02-17T04:22:21.398Z,58.95
2019-02-17T04:23:31.038Z,59.26
2019-02-17T04:24:22.341Z,58.95
2019-02-17T04:25:31.683Z,59.13
2019-02-17T04:26:21.571Z,59.23
2019-02-17T04:27:21.459Z,59.23
2019-02-17T04:28:21.337Z,59.03
2019-02-17T04:29:21.601Z,58.82
2019-02-17T04:30:29.300Z,58.92
2019-02-17T04:31:22.281Z,59.64
2019-02-17T04:32:21.278Z,59.03
2019-02-17T04:33:48.879Z,58.61
2019-02-17T04:34:21.276Z,58.61
2019-02-17T04:35:28.399Z,58.54
2019-02-17T04:36:21.281Z,59.13
2019-02-17T04:37:21.329Z,59.03
2019-02-17T04:38:21.236Z,58.72
2019-02-17T04:39:21.467Z,59.03
2019-02-17T04:40:21.195Z,59.03
2019-02-17T04:41:21.148Z,59.13
2019-02-17T04:42:37.230Z,59.36
2019-02-17T04:43:21.368Z,59.16
2019-02-17T04:44:21.311Z,59.88
2019-02-17T04:45:28.391Z,59.70
2019-02-17T04:46:21.359Z,59.50
2019-02-17T04:47:21.440Z,59.70
2019-02-17T04:48:21.387Z,59.80
2019-02-17T04:49:34.413Z,60.42
2019-02-17T04:50:21.189Z,60.14
2019-02-17T04:51:28.342Z,60.42
2019-02-17T04:52:21.314Z,60.53
2019-02-17T04:53:21.255Z,61.36
2019-02-17T04:54:21.280Z,60.42
2019-02-17T04:55:21.139Z,60.97
2019-02-17T04:56:21.024Z,60.97
2019-02-17T04:57:21.225Z,61.15
2019-02-17T04:58:20.970Z,60.74
2019-02-17T04:59:20.956Z,60.53
2019-02-17T05:00:20.935Z,60.53
2019-02-17T05:01:20.922Z,60.63
2019-02-17T05:02:20.922Z,60.94
2019-02-17T05:03:20.905Z,60.74
2019-02-17T05:04:20.883Z,60.53
2019-02-17T05:05:20.885Z,60.32
2019-02-17T05:06:20.900Z,60.94
2019-02-17T05:07:20.859Z,60.84
2019-02-17T05:08:20.837Z,60.22
2019-02-17T05:09:20.825Z,60.77
2019-02-17T05:10:20.818Z,61.15
2019-02-17T05:11:20.821Z,60.63
2019-02-17T05:12:20.819Z,60.56
2019-02-17T05:13:20.778Z,60.66
2019-02-17T05:14:20.774Z,60.87
2019-02-17T05:15:20.757Z,60.97
2019-02-17T05:16:20.775Z,61.49
2019-02-17T05:17:20.757Z,61.10
2019-02-17T05:18:20.737Z,61.93
2019-02-17T05:19:20.714Z,61.83
2019-02-17T05:20:20.707Z,62.14
2019-02-17T05:21:20.697Z,62.16
2019-02-17T05:22:20.697Z,62.14
2019-02-17T05:23:20.674Z,62.04
2019-02-17T05:24:20.657Z,61.83
2019-02-17T05:25:20.648Z,61.49
2019-02-17T05:26:20.635Z,61.28
2019-02-17T05:27:20.660Z,61.80
2019-02-17T05:28:20.641Z,61.49
2019-02-17T05:29:20.602Z,61.38
2019-02-17T05:30:20.589Z,62.01
2019-02-17T05:31:20.582Z,62.21
2019-02-17T05:32:20.568Z,61.90
2019-02-17T05:33:20.609Z,61.80
2019-02-17T05:34:20.565Z,62.21
2019-02-17T05:35:20.536Z,62.11
2019-02-17T05:36:20.529Z,61.83
2019-02-17T05:37:27.894Z,62.58
2019-02-17T05:38:20.750Z,63.23
2019-02-17T05:39:20.734Z,63.75
2019-02-17T05:40:20.630Z,63.54
2019-02-17T05:41:20.514Z,63.65
2019-02-17T05:42:20.802Z,63.62
2019-02-17T05:43:20.468Z,63.51
2019-02-17T05:44:20.433Z,62.97
2019-02-17T05:45:20.425Z,62.55
2019-02-17T05:46:20.416Z,61.90
2019-02-17T05:47:20.403Z,61.90
2019-02-17T05:48:20.397Z,61.80
2019-02-17T05:49:20.376Z,61.80
2019-02-17T05:50:20.380Z,61.49
2019-02-17T05:51:20.375Z,61.07
2019-02-17T05:52:20.348Z,61.57
2019-02-17T05:53:20.347Z,61.28
2019-02-17T05:54:20.321Z,61.05
2019-02-17T05:55:20.315Z,60.84
2019-02-17T05:56:20.319Z,61.05
2019-02-17T05:57:20.289Z,60.74
2019-02-17T05:58:20.301Z,61.07
2019-02-17T05:59:20.265Z,61.90
2019-02-17T06:00:20.268Z,62.04
2019-02-17T06:01:28.100Z,62.04
2019-02-17T06:02:20.386Z,61.93
2019-02-17T06:03:20.343Z,62.45
2019-02-17T06:04:20.261Z,62.97
2019-02-17T06:05:20.518Z,62.55
2019-02-17T06:06:20.211Z,62.76
2019-02-17T06:07:20.191Z,63.20
2019-02-17T06:08:20.193Z,62.99
2019-02-17T06:09:20.178Z,63.85
2019-02-17T06:10:20.148Z,64.06
2019-02-17T06:11:20.133Z,62.92
2019-02-17T06:12:20.127Z,64.17
2019-02-17T06:13:20.129Z,64.20
2019-02-17T06:14:20.100Z,64.17
2019-02-17T06:15:20.105Z,64.79
2019-02-17T06:16:20.085Z,64.06
2019-02-17T06:17:20.067Z,63.51
2019-02-17T06:18:20.069Z,63.82
2019-02-17T06:19:20.056Z,63.10
2019-02-17T06:20:20.035Z,63.10
2019-02-17T06:21:20.027Z,63.51
2019-02-17T06:22:27.221Z,63.72
2019-02-17T06:23:20.312Z,63.82
2019-02-17T06:24:20.100Z,63.72
2019-02-17T06:25:20.239Z,63.75
2019-02-17T06:26:20.237Z,63.72
2019-02-17T06:27:20.276Z,63.82
2019-02-17T06:28:19.965Z,64.03
2019-02-17T06:29:19.937Z,63.72
2019-02-17T06:30:19.950Z,63.59
2019-02-17T06:31:19.912Z,63.41
2019-02-17T06:32:19.900Z,63.48
2019-02-17T06:33:19.902Z,63.51
2019-02-17T06:34:19.877Z,62.99
2019-02-17T06:35:19.878Z,63.20
2019-02-17T06:36:19.879Z,63.48
2019-02-17T06:37:19.862Z,63.17
2019-02-17T06:38:19.846Z,62.87
2019-02-17T06:39:19.823Z,62.97
2019-02-17T06:40:19.818Z,63.28
2019-02-17T06:41:19.813Z,62.87
2019-02-17T06:42:19.790Z,63.10
2019-02-17T06:43:19.789Z,63.20
2019-02-17T06:44:19.767Z,63.48
2019-02-17T06:45:19.880Z,63.17
2019-02-17T06:46:19.755Z,62.66
2019-02-17T06:47:19.756Z,62.87
2019-02-17T06:48:19.759Z,62.97
2019-02-17T06:49:19.749Z,62.63
2019-02-17T06:50:19.699Z,62.52
2019-02-17T06:51:19.692Z,61.69
2019-02-17T06:52:19.699Z,61.80
2019-02-17T06:53:19.669Z,61.90
2019-02-17T06:54:19.676Z,61.80
2019-02-17T06:55:26.861Z,61.80
2019-02-17T06:56:19.927Z,61.80
2019-02-17T06:57:19.694Z,62.24
2019-02-17T06:58:19.757Z,63.07
2019-02-17T06:59:19.931Z,63.17
2019-02-17T07:00:19.604Z,63.15
2019-02-17T07:01:24.701Z,62.52
2019-02-17T07:02:20.674Z,62.08
2019-02-17T07:03:19.560Z,61.57
2019-02-17T07:04:19.582Z,61.77
2019-02-17T07:05:19.533Z,61.77
2019-02-17T07:06:19.522Z,61.02
2019-02-17T07:07:19.511Z,61.33
2019-02-17T07:08:19.499Z,61.36
2019-02-17T07:09:20.113Z,61.25
2019-02-17T07:10:19.477Z,61.46
2019-02-17T07:11:20.101Z,61.15
2019-02-17T07:12:19.454Z,60.84
2019-02-17T07:13:19.449Z,61.02
2019-02-17T07:14:19.448Z,61.74
2019-02-17T07:15:19.467Z,61.22
2019-02-17T07:16:19.542Z,60.89
2019-02-17T07:17:19.400Z,60.27
2019-02-17T07:18:19.412Z,60.06
2019-02-17T07:19:19.396Z,60.37
2019-02-17T07:20:19.374Z,60.47
2019-02-17T07:21:19.381Z,60.37
2019-02-17T07:22:19.354Z,60.16
2019-02-17T07:23:19.337Z,59.34
2019-02-17T07:24:19.349Z,59.85
2019-02-17T07:25:29.364Z,59.95
2019-02-17T07:26:20.327Z,59.75
2019-02-17T07:27:19.400Z,59.31
2019-02-17T07:28:19.351Z,59.62
2019-02-17T07:29:19.282Z,59.39
2019-02-17T07:30:19.263Z,60.21
2019-02-17T07:31:19.245Z,58.87
2019-02-17T07:32:19.248Z,59.59
2019-02-17T07:33:19.254Z,59.18
2019-02-17T07:34:19.311Z,59.08
2019-02-17T07:35:19.210Z,58.94
2019-02-17T07:36:19.206Z,58.43
2019-02-17T07:37:21.113Z,58.43
2019-02-17T07:38:19.192Z,58.43
2019-02-17T07:39:19.184Z,58.43
2019-02-17T07:40:22.112Z,58.09
2019-02-17T07:41:19.722Z,58.53
2019-02-17T07:42:19.122Z,58.30
2019-02-17T07:43:19.123Z,57.86
2019-02-17T07:44:21.641Z,57.65
2019-02-17T07:45:19.608Z,57.62
2019-02-17T07:46:21.639Z,57.09
2019-02-17T07:47:19.713Z,56.46
2019-02-17T07:48:19.174Z,56.03
2019-02-17T07:49:19.073Z,55.00
2019-02-17T07:50:19.045Z,55.28
2019-02-17T07:51:19.028Z,54.97
2019-02-17T07:52:19.012Z,54.43
2019-02-17T07:53:19.001Z,53.71
2019-02-17T07:54:19.005Z,53.92
2019-02-17T07:55:19.015Z,53.92
2019-02-17T07:56:19.010Z,53.81
2019-02-17T07:57:18.987Z,52.76
2019-02-17T07:58:18.960Z,53.25
2019-02-17T07:59:18.987Z,53.02
2019-02-17T08:00:18.961Z,51.79
2019-02-17T08:01:18.985Z,51.87
2019-02-17T08:02:18.941Z,51.04
2019-02-17T08:03:18.906Z,50.94
2019-02-17T08:04:18.889Z,50.53
2019-02-17T08:05:18.979Z,51.25
2019-02-17T08:06:19.609Z,51.66
2019-02-17T08:07:18.873Z,51.04
2019-02-17T08:08:18.889Z,50.71
2019-02-17T08:09:19.614Z,50.99
2019-02-17T08:10:18.924Z,50.36
2019-02-17T08:11:18.894Z,49.64
2019-02-17T08:12:18.896Z,48.80
2019-02-17T08:13:18.964Z,48.57
2019-02-17T08:14:19.615Z,48.06
2019-02-17T08:15:18.832Z,47.73
2019-02-17T08:16:19.620Z,46.78
2019-02-17T08:17:19.670Z,46.45
2019-02-17T08:18:18.807Z,46.64
2019-02-17T08:19:18.766Z,46.00
2019-02-17T08:20:18.829Z,45.59
2019-02-17T08:21:18.806Z,44.85
2019-02-17T08:22:19.609Z,45.04
2019-02-17T08:23:26.934Z,44.43
2019-02-17T08:24:18.953Z,44.22
2019-02-17T08:25:21.721Z,45.35
2019-02-17T08:26:18.922Z,44.10
2019-02-17T08:27:25.911Z,43.77
2019-02-17T08:28:18.917Z,43.26
2019-02-17T08:29:18.947Z,44.06
2019-02-17T08:30:29.609Z,42.73
2019-02-17T08:31:28.204Z,43.02
2019-02-17T08:32:29.212Z,42.29
2019-02-17T08:33:45.507Z,41.75
2019-02-17T08:34:18.758Z,40.84
2019-02-17T08:36:48.230Z,40.60
2019-02-17T08:37:47.500Z,39.50
2019-02-17T08:38:47.482Z,40.72
2019-02-17T08:39:47.495Z,41.53
2019-02-17T08:40:47.474Z,40.91
2019-02-17T08:41:47.445Z,41.72
2019-02-17T08:42:47.433Z,40.50
2019-02-17T08:43:47.436Z,40.99
2019-02-17T08:44:47.442Z,40.27
2019-02-17T08:45:47.466Z,39.44
2019-02-17T08:46:47.360Z,39.14
2019-02-17T08:47:47.339Z,39.36
2019-02-17T08:48:47.477Z,39.44
2019-02-17T08:49:47.213Z,39.44
2019-02-17T08:50:48.942Z,39.54
2019-02-17T08:51:47.314Z,39.76
2019-02-17T08:52:47.119Z,39.78
2019-02-17T08:57:38.632Z,40.70
2019-02-17T09:00:49.093Z,39.44
2019-02-17T09:01:48.933Z,39.36
2019-02-17T09:04:48.660Z,39.36
2019-02-17T09:05:48.480Z,39.15
2019-02-17T09:08:59.038Z,38.09
